Flight Track Log - Related Links

Times and Time Zones

All times are in EDT time to prevent confusion due to time zone crossing. See the RPA3242 flight status page for this flight to view local times or setup timezone preferences in your user account.

Time Position Orientation Groundspeed Altitude Reporting Facility
EDT Latitude Longitude Course Direction KTS MPH feet Rate Location/Type
Tue 09:30:58 PM 39.8667 -75.2833 37° Northeast 143 165 1,100  Level Philadelphia TRACON
Tue 09:31:28 PM 39.8500 -75.3000 218° Southwest 142 163 2,100 1,846 Climbing Philadelphia TRACON
Tue 09:32:29 PM 39.8000 -75.3333 207° Southwest 228 262 3,900 2,087 Climbing Philadelphia TRACON
Tue 09:33:00 PM 39.8018 -74.7920 105° East  Level FlightAware Approximate
Tue 09:33:23 PM 39.7500 -75.3167 166° South 254 292 6,100  Level Philadelphia TRACON
Tue 09:34:00 PM 39.8188 -74.6646 37° Northeast  Level FlightAware Approximate
Tue 09:34:23 PM 39.7500 -75.2167 90° East 286 329 8,600  Level Philadelphia TRACON
Tue 09:35:00 PM 39.9123 -74.5711 37° Northeast  Level FlightAware Approximate
Tue 09:36:00 PM 40.0092 -74.4909 37° Northeast  Level FlightAware Approximate
Tue 09:36:53 PM 39.7725 -74.9572 83° East 323 372 12,000  Level New York Center
Tue 09:37:53 PM 39.7831 -74.8308 84° East 323 372 12,600 1,487 Climbing New York Center
Tue 09:38:50 PM 39.8039 -74.7078 78° East 330 380 14,900 2,168 Climbing New York Center
Tue 09:39:52 PM 39.8794 -74.6308 38° Northeast 314 361 16,900 1,869 Climbing New York Center
Tue 09:40:52 PM 39.9633 -74.5489 37° Northeast 333 383 18,700 1,800 Climbing New York Center
Tue 09:41:52 PM 40.0431 -74.4692 37° Northeast 346 398 20,500 1,650 Climbing New York Center
Tue 09:42:52 PM 40.1269 -74.3869 37° Northeast 362 417 22,000 1,488 Climbing New York Center
Tue 09:43:53 PM 40.2211 -74.3075 33° Northeast 374 430 23,500 1,008 Climbing New York Center
Tue 09:44:51 PM 40.3128 -74.2358 31° Northeast 385 443 24,000 254 Climbing New York Center
Tue 09:45:51 PM 40.4089 -74.1589 31° Northeast 395 455 24,000  Level New York Center
Tue 09:46:52 PM 40.5047 -74.0872 30° Northeast 395 455 24,000  Level New York Center
Tue 09:47:52 PM 40.5983 -74.0153 30° Northeast 395 455 24,000  Level New York Center
Tue 09:48:52 PM 40.6942 -73.9406 31° Northeast 395 455 24,000  Level New York Center
Tue 09:51:18 PM 40.9050 -73.7389 36° Northeast 390 449 24,000 -87 Level Boston Center
Tue 09:52:18 PM 41.0136 -73.7219 North 375 432 23,700 -800 Descending Boston Center
Tue 09:53:18 PM 41.1175 -73.7294 357° North 375 432 22,400 -1,350 Descending Boston Center
Tue 09:54:18 PM 41.2258 -73.7317 359° North 375 432 21,000 -1,350 Descending Boston Center
Tue 09:55:18 PM 41.3281 -73.7367 358° North 375 432 19,700 -1,450 Descending Boston Center
Tue 09:56:18 PM 41.4383 -73.7414 358° North 362 417 18,100 -1,409 Descending Boston Center
Tue 09:57:30 PM 41.5258 -73.7461 358° North 352 405 16,600 -1,545 Descending Boston Center
Tue 09:58:30 PM 41.6364 -73.7511 358° North 334 384 14,700 -1,750 Descending Boston Center
Tue 09:59:30 PM 41.7342 -73.7558 358° North 319 367 13,100 -1,200 Descending Boston Center
Tue 10:00:30 PM 41.8111 -73.7603 358° North 311 358 12,300 -950 Descending Boston Center
Tue 10:01:30 PM 41.8944 -73.7647 358° North 280 322 11,200 -650 Descending Boston Center
Tue 10:02:30 PM 41.9569 -73.7661 359° North 255 293 11,000 -160 Descending Boston Center
Tue 10:02:45 PM 41.9800 -73.7722 349° North 242 278 11,000  Level Boston Center
Tue 10:03:03 PM 42.0028 -73.7672 North 243 280 11,000  Level Boston Center
Tue 10:03:30 PM 42.0319 -73.7706 355° North 250 288 11,000  Level Boston Center
Tue 10:04:04 PM 42.0717 -73.7686 North 251 289 11,000  Level Boston Center
Tue 10:04:30 PM 42.0867 -73.7381 57° Northeast 224 258 11,000  Level Boston Center
Tue 10:05:05 PM 42.0664 -73.6817 116° Southeast 284 327 11,000  Level Boston Center
Tue 10:05:30 PM 42.0372 -73.6811 179° South 155 178 11,000  Level Boston Center
Tue 10:06:05 PM 41.9956 -73.6775 176° South 251 289 11,000  Level Boston Center
Tue 10:06:30 PM 41.9728 -73.6772 179° South 213 245 11,000  Level Boston Center
Tue 10:07:06 PM 41.9269 -73.6761 179° South 251 289 11,000  Level Boston Center
Tue 10:07:30 PM 41.8978 -73.6728 175° South 251 289 11,000  Level Boston Center
Tue 10:08:06 PM 41.8581 -73.6806 188° South 244 281 11,000  Level Boston Center
Tue 10:08:30 PM 41.8514 -73.7053 250° West 211 243 11,000  Level Boston Center
Tue 10:09:07 PM 41.8633 -73.7558 288° West 224 258 11,000  Level Boston Center
Tue 10:09:30 PM 41.8906 -73.7619 351° North 153 176 11,000  Level Boston Center
Tue 10:10:08 PM 41.9300 -73.7656 356° North 253 291 11,000  Level Boston Center
Tue 10:10:30 PM 41.9528 -73.7661 359° North 218 251 11,000  Level Boston Center
Tue 10:11:08 PM 41.9986 -73.7697 357° North 252 290 11,000  Level Boston Center
Tue 10:11:30 PM 42.0278 -73.7703 359° North 240 276 11,000  Level Boston Center
Tue 10:12:09 PM 42.0739 -73.7631 North 253 291 11,000  Level Boston Center
Tue 10:12:30 PM 42.0844 -73.7436 54° Northeast 233 268 11,000  Level Boston Center
Tue 10:13:10 PM 42.0642 -73.6817 114° Southeast 284 327 11,000 -100 Level Boston Center
Tue 10:13:30 PM 42.0392 -73.6811 179° South 141 162 10,900  Descending Boston Center
Tue 10:14:10 PM 41.9936 -73.6775 177° South 249 287 11,000 100 Climbing Boston Center
Tue 10:14:30 PM 41.9789 -73.6772 179° South 177 204 11,000  Level Boston Center
Tue 10:15:11 PM 41.9247 -73.6761 179° South 251 289 11,000  Level Boston Center
Tue 10:15:30 PM 41.9019 -73.6731 174° South 245 282 11,000  Level Boston Center
Tue 10:16:11 PM 41.8581 -73.6833 190° South 245 282 11,000  Level Boston Center
Tue 10:16:30 PM 41.8514 -73.7025 245° Southwest 219 252 11,000  Level Boston Center
Tue 10:17:12 PM 41.8633 -73.7558 287° West 226 260 11,000  Level Boston Center
Tue 10:17:30 PM 41.8861 -73.7619 349° North 144 166 11,000  Level Boston Center
Tue 10:18:13 PM 41.9319 -73.7656 357° North 255 293 11,000  Level Boston Center
Tue 10:18:30 PM 41.9467 -73.7658 359° North 219 252 11,000  Level Boston Center
Tue 10:19:13 PM 42.0069 -73.7700 357° North 250 288 11,000  Level Boston Center
Tue 10:19:30 PM 42.0236 -73.7703 359° North 232 267 11,000  Level Boston Center
Tue 10:20:14 PM 42.0739 -73.7631 North 254 292 11,000  Level Boston Center
Tue 10:20:30 PM 42.0822 -73.7519 45° Northeast 237 273 11,000  Level Boston Center
Tue 10:21:15 PM 42.0622 -73.6817 111° Southeast 285 328 11,000 -100 Level Boston Center
Tue 10:21:30 PM 42.0456 -73.6814 179° South 114 131 10,900  Descending Boston Center
Tue 10:22:15 PM 41.9914 -73.6775 177° South 251 289 11,000 100 Climbing Boston Center
Tue 10:22:30 PM 41.9811 -73.6772 179° South 153 176 11,000  Level Boston Center
Tue 10:23:16 PM 41.9225 -73.6761 179° South 251 289 11,000  Level Boston Center
Tue 10:23:42 PM 41.8914 -73.6728 175° South 250 288 11,000  Level Boston Center
Tue 10:24:17 PM 41.8581 -73.6833 193° South 244 281 11,000  Level Boston Center
Tue 10:24:42 PM 41.8492 -73.7222 253° West 210 242 11,000  Level Boston Center
Tue 10:25:17 PM 41.8675 -73.7586 304° West 228 262 11,000  Level Boston Center
Tue 10:25:42 PM 41.8925 -73.7647 350° North 147 169 11,000  Level Boston Center
Tue 10:26:18 PM 41.9383 -73.7686 356° North 253 291 11,000  Level Boston Center
Tue 10:26:42 PM 41.9653 -73.7664 North 194 223 11,000  Level Boston Center
Tue 10:27:18 PM 42.0069 -73.7700 356° North 250 288 11,000  Level Boston Center
Tue 10:27:42 PM 42.0319 -73.7706 359° North 231 266 11,000  Level Boston Center
Tue 10:28:19 PM 42.0739 -73.7631 North 255 293 11,000  Level Boston Center
Tue 10:28:42 PM 42.0889 -73.7269 61° Northeast 230 265 11,000  Level Boston Center
Tue 10:29:20 PM 42.0642 -73.6817 126° Southeast 275 316 11,000 -100 Level Boston Center
Tue 10:29:42 PM 42.0392 -73.6811 179° South 112 129 10,900  Descending Boston Center
Tue 10:30:20 PM 41.9936 -73.6775 177° South 251 289 11,000 100 Climbing Boston Center
Tue 10:30:42 PM 41.9664 -73.6769 179° South 212 244 11,000  Level Boston Center
Tue 10:31:21 PM 41.9247 -73.6761 179° South 251 289 11,000  Level Boston Center
Tue 10:31:42 PM 41.8956 -73.6728 175° South 239 275 11,000  Level Boston Center
Tue 10:32:22 PM 41.8536 -73.6914 198° South 242 278 11,000  Level Boston Center
Tue 10:32:42 PM 41.8472 -73.7025 232° Southwest 245 282 11,000  Level Boston Center
Tue 10:33:22 PM 41.8675 -73.7586 296° West 228 262 11,000  Level Boston Center
Tue 10:33:42 PM 41.8883 -73.7647 348° North 162 186 11,000  Level Boston Center
Tue 10:34:23 PM 41.9361 -73.7658 359° North 253 291 11,000  Level Boston Center
Tue 10:34:42 PM 41.9528 -73.7661 359° North 212 244 11,000  Level Boston Center
Tue 10:35:24 PM 42.0069 -73.7700 357° North 250 288 11,000  Level Boston Center
Tue 10:35:42 PM 42.0278 -73.7703 359° North 232 267 11,000  Level Boston Center
Tue 10:36:24 PM 42.0758 -73.7714 359° North 250 288 11,000  Level Boston Center
Tue 10:36:42 PM 42.0967 -73.7747 353° North 243 280 11,000  Level Boston Center
Tue 10:37:42 PM 42.1592 -73.7761 359° North 248 285 11,000 -164 Level Boston Center
Tue 10:38:32 PM 42.2236 -73.7803 357° North 249 287 10,700 -1,036 Descending Boston Center
Tue 10:39:32 PM 42.2903 -73.7844 357° North 244 281 9,100 -1,333 Descending Boston Center
Tue 10:39:53 PM 42.2944 -73.7844 360° North 243 280 8,900 -1,770 Descending Boston Center
Tue 10:40:33 PM 42.3589 -73.7917 355° North 242 278 7,300 -2,066 Descending Boston Center
Tue 10:40:54 PM 42.3819 -73.7892 North 238 274 6,800 -1,574 Descending Boston Center
Tue 10:41:34 PM 42.4278 -73.7931 356° North 243 280 5,700 -1,800 Descending Boston Center
Tue 10:41:54 PM 42.4486 -73.7936 359° North 238 274 5,000 -1,900 Descending Boston Center
Tue 10:42:34 PM 42.4944 -73.7972 357° North 244 281 3,800 -1,700 Descending Boston Center
Tue 10:42:54 PM 42.5194 -73.7978 359° North 238 274 3,300 -825 Descending Boston Center
Tue 10:43:54 PM 42.5797 -73.7992 359° North 226 260 2,700 -450 Descending Boston Center
Tue 10:44:54 PM 42.6297 -73.8031 357° North 213 245 2,400 -300 Descending Boston Center

Login

Don't have an account? Register now (free) for customized features, flight alerts, and more!